createdAt,value
2023-02-13T00:04:01.120Z,-3.19
2023-02-13T00:09:06.405Z,-3.21
2023-02-13T00:14:10.348Z,-3.28
2023-02-13T00:19:13.327Z,-3.30
2023-02-13T00:24:16.368Z,-3.35
2023-02-13T00:29:19.433Z,-3.41
2023-02-13T00:34:22.173Z,-3.46
2023-02-13T00:39:25.029Z,-3.48
2023-02-13T00:44:28.045Z,-3.52
2023-02-13T00:49:31.019Z,-3.54
2023-02-13T00:54:33.913Z,-3.54
2023-02-13T00:59:36.918Z,-3.54
2023-02-13T01:04:39.818Z,-3.50
2023-02-13T01:09:42.892Z,-3.52
2023-02-13T01:14:45.719Z,-3.48
2023-02-13T01:19:48.734Z,-3.45
2023-02-13T01:24:51.727Z,-3.45
2023-02-13T01:29:55.214Z,-3.50
2023-02-13T01:34:58.035Z,-3.56
2023-02-13T01:40:01.140Z,-3.61
2023-02-13T01:45:27.804Z,-3.69
2023-02-13T01:50:45.282Z,-3.73
2023-02-13T01:55:56.373Z,-3.75
2023-02-13T02:01:01.073Z,-3.83
2023-02-13T02:06:08.183Z,-3.88
2023-02-13T02:11:22.916Z,-3.95
2023-02-13T02:16:26.412Z,-4.00
2023-02-13T02:21:58.495Z,-4.01
2023-02-13T02:27:41.698Z,-3.94
2023-02-13T02:33:27.823Z,-3.93
2023-02-13T02:38:39.494Z,-3.95
2023-02-13T02:43:55.539Z,-3.96
2023-02-13T02:49:35.491Z,-4.03
2023-02-13T02:55:09.503Z,-4.12
2023-02-13T03:00:32.303Z,-4.23
2023-02-13T03:05:59.034Z,-4.32
2023-02-13T03:11:20.899Z,-4.35
2023-02-13T03:16:44.328Z,-4.40
2023-02-13T03:22:17.835Z,-4.40
2023-02-13T03:28:17.262Z,-4.43
2023-02-13T03:34:05.078Z,-4.49
2023-02-13T03:39:47.466Z,-4.45
2023-02-13T03:45:21.888Z,-4.42
2023-02-13T03:50:27.507Z,-4.45
2023-02-13T03:55:55.826Z,-4.50
2023-02-13T04:01:03.213Z,-4.58
2023-02-13T04:06:20.444Z,-4.63
2023-02-13T04:11:39.783Z,-4.69
2023-02-13T04:17:11.683Z,-4.75
2023-02-13T04:22:15.667Z,-4.82
2023-02-13T04:27:18.905Z,-4.83
2023-02-13T04:32:21.649Z,-4.81
2023-02-13T04:37:24.697Z,-4.79
2023-02-13T04:42:27.648Z,-4.83
2023-02-13T04:47:30.631Z,-4.88
2023-02-13T04:52:33.673Z,-4.95
2023-02-13T04:57:36.675Z,-5.00
2023-02-13T05:02:39.772Z,-5.04
2023-02-13T05:07:43.159Z,-5.07
2023-02-13T05:12:47.649Z,-5.10
2023-02-13T05:17:51.251Z,-5.08
2023-02-13T05:23:13.377Z,-5.07
2023-02-13T05:28:35.375Z,-5.04
2023-02-13T05:33:38.638Z,-5.07
2023-02-13T05:38:41.644Z,-5.07
2023-02-13T05:43:44.687Z,-5.05
2023-02-13T05:48:47.725Z,-5.03
2023-02-13T05:53:51.055Z,-5.03
2023-02-13T05:58:55.938Z,-5.03
2023-02-13T06:04:00.960Z,-5.00
2023-02-13T06:09:05.912Z,-4.93
2023-02-13T06:14:08.974Z,-4.78
2023-02-13T06:19:11.972Z,-4.68
2023-02-13T06:24:15.069Z,-4.61
2023-02-13T06:29:18.121Z,-4.58
2023-02-13T06:34:20.857Z,-4.48
2023-02-13T06:39:23.848Z,-4.39
2023-02-13T06:44:26.924Z,-4.27
2023-02-13T06:49:29.829Z,-4.07
2023-02-13T06:54:46.405Z,-3.94
2023-02-13T06:59:50.508Z,-3.80
2023-02-13T07:04:53.419Z,-3.60
2023-02-13T07:09:56.418Z,-3.40
2023-02-13T07:15:00.032Z,-3.19
2023-02-13T07:20:05.108Z,-2.96
2023-02-13T07:25:08.724Z,-2.72
2023-02-13T07:30:12.365Z,-2.35
2023-02-13T07:35:15.394Z,-1.01
2023-02-13T07:40:18.677Z,0.55
2023-02-13T07:45:21.662Z,1.95
2023-02-13T07:50:24.881Z,3.10
2023-02-13T07:55:31.446Z,3.91
2023-02-13T08:00:34.400Z,4.43
2023-02-13T08:05:38.846Z,4.62
2023-02-13T08:11:00.169Z,4.76
2023-02-13T08:16:03.590Z,4.61
2023-02-13T08:21:06.655Z,4.83
2023-02-13T08:26:09.657Z,5.16
2023-02-13T08:31:13.626Z,5.33
2023-02-13T08:36:17.123Z,5.79
2023-02-13T08:41:22.183Z,6.19
2023-02-13T08:46:25.336Z,6.44
2023-02-13T08:51:28.377Z,6.55
2023-02-13T08:56:31.335Z,6.42
2023-02-13T09:01:34.453Z,6.40
2023-02-13T09:06:37.489Z,6.46
2023-02-13T09:11:40.206Z,6.86
2023-02-13T09:16:43.322Z,7.40
2023-02-13T09:21:46.319Z,7.85
2023-02-13T09:26:49.244Z,8.24
2023-02-13T09:31:52.853Z,8.77
2023-02-13T09:36:56.052Z,9.25
2023-02-13T09:42:00.948Z,9.16
2023-02-13T09:47:25.726Z,9.26
2023-02-13T09:52:37.211Z,9.68
2023-02-13T09:57:56.769Z,10.10
2023-02-13T10:02:59.703Z,10.28
2023-02-13T10:08:36.729Z,10.58
2023-02-13T10:14:00.762Z,10.14
2023-02-13T10:19:34.361Z,9.46
2023-02-13T10:24:47.244Z,9.50
2023-02-13T10:30:28.130Z,9.72
2023-02-13T10:35:32.333Z,10.21
2023-02-13T10:40:43.068Z,10.87
2023-02-13T10:45:57.330Z,11.11
2023-02-13T10:51:25.926Z,11.64
2023-02-13T10:57:22.515Z,11.91
2023-02-13T11:02:29.316Z,12.10
2023-02-13T11:07:32.721Z,12.23
2023-02-13T11:12:35.805Z,12.23
2023-02-13T11:17:44.169Z,12.12
2023-02-13T11:22:47.498Z,11.99
2023-02-13T11:27:56.180Z,11.76
2023-02-13T11:33:04.236Z,11.56
2023-02-13T11:38:16.515Z,11.59
2023-02-13T11:43:47.976Z,11.66
2023-02-13T11:49:06.679Z,11.66
2023-02-13T11:54:42.150Z,11.58
2023-02-13T11:59:47.745Z,11.18
2023-02-13T12:05:13.302Z,10.42
2023-02-13T12:10:26.539Z,9.77
2023-02-13T12:15:33.824Z,9.16
2023-02-13T12:21:18.237Z,8.89
2023-02-13T12:26:33.384Z,8.69
2023-02-13T12:32:09.660Z,8.47
2023-02-13T12:37:15.645Z,8.36
2023-02-13T12:42:58.092Z,8.30
2023-02-13T12:48:28.456Z,8.26
2023-02-13T12:53:58.310Z,8.25
2023-02-13T12:59:30.128Z,8.19
2023-02-13T13:05:27.492Z,8.21
2023-02-13T13:11:03.630Z,8.22
2023-02-13T13:16:09.412Z,8.13
2023-02-13T13:21:50.072Z,8.14
2023-02-13T13:26:57.318Z,8.05
2023-02-13T13:32:08.725Z,7.96
2023-02-13T13:37:31.580Z,7.87
2023-02-13T13:42:40.708Z,7.82
2023-02-13T13:48:01.920Z,7.71
2023-02-13T13:53:21.053Z,7.59
2023-02-13T13:58:43.271Z,7.46
2023-02-13T14:03:53.256Z,7.35
2023-02-13T14:09:04.137Z,7.16
2023-02-13T14:14:29.069Z,6.85
2023-02-13T14:19:40.449Z,6.73
2023-02-13T14:24:49.303Z,6.67
2023-02-13T14:29:52.685Z,6.57
2023-02-13T14:35:16.812Z,6.46
2023-02-13T14:40:49.386Z,6.32
2023-02-13T14:46:02.105Z,6.25
2023-02-13T14:51:06.177Z,6.17
2023-02-13T14:56:15.593Z,6.17
2023-02-13T15:01:32.392Z,6.21
2023-02-13T15:06:41.907Z,6.25
2023-02-13T15:11:45.311Z,6.30
2023-02-13T15:16:57.907Z,6.28
2023-02-13T15:22:04.597Z,6.12
2023-02-13T15:27:16.528Z,5.96
2023-02-13T15:32:26.424Z,5.78
2023-02-13T15:37:31.168Z,5.58
2023-02-13T15:42:34.495Z,5.37
2023-02-13T15:47:37.685Z,5.18
2023-02-13T15:52:40.729Z,5.08
2023-02-13T15:57:43.915Z,5.03
2023-02-13T16:02:48.741Z,4.91
2023-02-13T16:07:58.931Z,4.74
2023-02-13T16:13:07.592Z,4.57
2023-02-13T16:18:20.648Z,4.36
2023-02-13T16:23:23.711Z,4.23
2023-02-13T16:28:31.878Z,4.15
2023-02-13T16:33:39.315Z,4.07
2023-02-13T16:38:45.310Z,4.00
2023-02-13T16:43:56.137Z,3.95
2023-02-13T16:49:01.742Z,3.94
2023-02-13T16:54:10.748Z,3.84
2023-02-13T16:59:47.957Z,3.76
2023-02-13T17:05:14.702Z,3.70
2023-02-13T17:10:36.484Z,3.65
2023-02-13T17:15:46.508Z,3.61
2023-02-13T17:20:49.826Z,3.50
2023-02-13T17:25:54.175Z,3.41
2023-02-13T17:30:59.886Z,3.44
2023-02-13T17:36:03.489Z,3.42
2023-02-13T17:41:14.888Z,3.38
2023-02-13T17:46:18.086Z,3.40
2023-02-13T17:51:21.319Z,3.45
2023-02-13T17:56:24.242Z,3.49
2023-02-13T18:01:29.352Z,3.52
2023-02-13T18:06:32.278Z,3.47
2023-02-13T18:11:35.356Z,3.41
2023-02-13T18:16:38.415Z,3.38
2023-02-13T18:21:42.137Z,3.35
2023-02-13T18:26:45.194Z,3.29
2023-02-13T18:31:48.490Z,3.28
2023-02-13T18:36:51.514Z,3.24
2023-02-13T18:41:54.508Z,3.23
2023-02-13T18:46:58.251Z,3.23
2023-02-13T18:52:02.347Z,3.15
2023-02-13T18:57:06.196Z,3.09
2023-02-13T19:02:10.334Z,3.03
2023-02-13T19:07:13.925Z,2.96
2023-02-13T19:12:16.998Z,2.99
2023-02-13T19:17:20.177Z,2.94
2023-02-13T19:22:23.037Z,2.94
2023-02-13T19:27:26.143Z,2.90
2023-02-13T19:32:29.059Z,2.86
2023-02-13T19:37:43.054Z,2.80
2023-02-13T19:42:48.298Z,2.80
2023-02-13T19:47:51.409Z,2.81
2023-02-13T19:52:54.531Z,2.77
2023-02-13T19:57:57.725Z,2.71
2023-02-13T20:03:04.820Z,2.75
2023-02-13T20:08:07.829Z,2.91
2023-02-13T20:13:10.770Z,3.09
2023-02-13T20:18:13.792Z,3.09
2023-02-13T20:23:18.573Z,3.08
2023-02-13T20:28:21.569Z,3.16
2023-02-13T20:33:24.557Z,3.18
2023-02-13T20:38:27.631Z,3.20
2023-02-13T20:43:32.782Z,3.38
2023-02-13T20:48:37.357Z,3.37
2023-02-13T20:53:42.519Z,3.28
2023-02-13T20:58:48.614Z,3.28
2023-02-13T21:03:56.314Z,3.16
2023-02-13T21:08:59.432Z,2.94
2023-02-13T21:14:02.986Z,2.68
2023-02-13T21:19:19.317Z,2.47
2023-02-13T21:24:23.591Z,2.32
2023-02-13T21:29:26.685Z,2.22
2023-02-13T21:34:29.777Z,2.13
2023-02-13T21:39:32.786Z,2.00
2023-02-13T21:44:36.030Z,1.80
2023-02-13T21:49:39.067Z,1.55
2023-02-13T21:54:42.080Z,1.43
2023-02-13T21:59:45.009Z,1.33
2023-02-13T22:04:48.017Z,1.15
2023-02-13T22:09:51.167Z,0.97
2023-02-13T22:14:55.223Z,0.82
2023-02-13T22:19:58.160Z,0.71
2023-02-13T22:25:01.664Z,0.66
2023-02-13T22:30:06.813Z,0.62
2023-02-13T22:35:10.012Z,0.61
2023-02-13T22:40:13.250Z,0.72
2023-02-13T22:45:16.410Z,0.76
2023-02-13T22:50:19.867Z,0.78
2023-02-13T22:55:22.708Z,0.90
2023-02-13T23:00:27.000Z,1.15
2023-02-13T23:05:29.925Z,1.37
2023-02-13T23:10:32.926Z,1.50
2023-02-13T23:15:36.761Z,1.65
2023-02-13T23:20:44.171Z,1.80
2023-02-13T23:25:47.078Z,1.83
2023-02-13T23:30:50.151Z,1.95
2023-02-13T23:35:53.352Z,2.06
2023-02-13T23:40:56.584Z,2.09
2023-02-13T23:45:59.410Z,2.09
2023-02-13T23:51:02.719Z,2.08
2023-02-13T23:56:06.434Z,2.07
